createdAt,value
2023-02-19T00:02:03.379Z,99353.69
2023-02-19T00:04:33.208Z,99342.28
2023-02-19T00:07:01.763Z,99346.63
2023-02-19T00:09:30.528Z,99340.75
2023-02-19T00:11:58.919Z,99345.69
2023-02-19T00:14:27.294Z,99349.81
2023-02-19T00:16:55.742Z,99349.50
2023-02-19T00:19:24.167Z,99344.13
2023-02-19T00:21:54.859Z,99354.94
2023-02-19T00:24:23.734Z,99349.09
2023-02-19T00:26:52.195Z,99356.28
2023-02-19T00:29:24.840Z,99364.09
2023-02-19T00:31:53.348Z,99362.78
2023-02-19T00:34:21.853Z,99361.44
2023-02-19T00:36:50.335Z,99373.66
2023-02-19T00:39:21.509Z,99372.63
2023-02-19T00:41:50.165Z,99376.22
2023-02-19T00:44:18.590Z,99373.75
2023-02-19T00:46:48.936Z,99374.56
2023-02-19T00:49:21.088Z,99367.38
2023-02-19T00:51:51.018Z,99364.91
2023-02-19T00:54:22.664Z,99373.31
2023-02-19T00:56:51.415Z,99365.81
2023-02-19T00:59:20.028Z,99371.69
2023-02-19T01:01:49.707Z,99362.53
2023-02-19T01:04:18.319Z,99367.25
2023-02-19T01:06:48.709Z,99363.69
2023-02-19T01:09:17.225Z,99376.72
2023-02-19T01:11:47.009Z,99375.06
2023-02-19T01:14:15.683Z,99372.28
2023-02-19T01:16:44.113Z,99370.34
2023-02-19T01:19:15.261Z,99373.13
2023-02-19T01:21:43.879Z,99369.22
2023-02-19T01:24:12.470Z,99363.38
2023-02-19T01:26:41.553Z,99353.38
2023-02-19T01:29:11.675Z,99356.47
2023-02-19T01:31:42.276Z,99355.66
2023-02-19T01:34:13.048Z,99354.03
2023-02-19T01:36:41.781Z,99346.81
2023-02-19T01:39:11.880Z,99342.69
2023-02-19T01:41:42.417Z,99345.28
2023-02-19T01:48:07.617Z,99329.94
2023-02-19T01:50:43.676Z,99336.06
2023-02-19T01:53:15.979Z,99334.22
2023-02-19T01:55:46.751Z,99335.34
2023-02-19T01:58:17.580Z,99321.56
2023-02-19T02:00:45.973Z,99330.78
2023-02-19T02:03:16.302Z,99325.03
2023-02-19T02:05:54.061Z,99321.25
2023-02-19T02:08:40.061Z,99312.69
2023-02-19T02:11:09.033Z,99316.91
2023-02-19T02:13:39.907Z,99300.38
2023-02-19T02:16:24.002Z,99307.34
2023-02-19T02:19:03.629Z,99304.03
2023-02-19T02:21:57.283Z,99299.94
2023-02-19T02:25:13.611Z,99303.91
2023-02-19T02:27:55.159Z,99312.22
2023-02-19T02:30:39.011Z,99305.84
2023-02-19T02:33:28.659Z,99298.38
2023-02-19T02:36:04.698Z,99288.63
2023-02-19T02:38:38.358Z,99302.16
2023-02-19T02:41:08.340Z,99294.69
2023-02-19T02:43:37.045Z,99298.59
2023-02-19T02:46:07.296Z,99302.81
2023-02-19T02:48:40.209Z,99292.53
2023-02-19T02:51:17.259Z,99282.06
2023-02-19T02:54:11.126Z,99275.16
2023-02-19T02:56:41.413Z,99276.41
2023-02-19T02:59:13.400Z,99283.44
2023-02-19T03:02:04.982Z,99282.47
2023-02-19T03:04:59.349Z,99296.50
2023-02-19T03:07:32.433Z,99293.25
2023-02-19T03:10:03.927Z,99291.16
2023-02-19T03:12:51.346Z,99288.47
2023-02-19T03:15:39.807Z,99281.38
2023-02-19T03:18:29.505Z,99275.91
2023-02-19T03:21:00.161Z,99279.56
2023-02-19T03:23:46.091Z,99283.75
2023-02-19T03:26:15.941Z,99283.25
2023-02-19T03:29:04.377Z,99277.19
2023-02-19T03:31:34.272Z,99275.00
2023-02-19T03:34:10.039Z,99282.47
2023-02-19T03:36:45.102Z,99275.84
2023-02-19T03:39:18.927Z,99284.94
2023-02-19T03:42:00.067Z,99274.19
2023-02-19T03:44:42.561Z,99288.53
2023-02-19T03:47:19.845Z,99288.25
2023-02-19T03:49:56.679Z,99291.03
2023-02-19T03:52:34.056Z,99285.50
2023-02-19T03:55:07.934Z,99278.28
2023-02-19T03:57:50.449Z,99273.88
2023-02-19T04:00:24.382Z,99271.09
2023-02-19T04:02:59.718Z,99273.06
2023-02-19T04:05:33.988Z,99273.88
2023-02-19T04:08:09.278Z,99278.28
2023-02-19T04:10:39.267Z,99266.69
2023-02-19T04:13:14.933Z,99271.03
2023-02-19T04:15:45.691Z,99278.50
2023-02-19T04:18:19.720Z,99269.69
2023-02-19T04:20:50.105Z,99268.56
2023-02-19T04:23:23.047Z,99273.28
2023-02-19T04:25:57.313Z,99279.13
2023-02-19T04:28:25.868Z,99271.94
2023-02-19T04:30:54.319Z,99270.28
2023-02-19T04:33:22.795Z,99273.06
2023-02-19T04:35:52.597Z,99265.03
2023-02-19T04:38:21.072Z,99266.69
2023-02-19T04:40:51.472Z,99263.41
2023-02-19T04:43:20.164Z,99268.13
2023-02-19T04:45:48.600Z,99265.88
2023-02-19T04:48:17.010Z,99273.34
2023-02-19T04:50:45.407Z,99259.50
2023-02-19T04:53:15.336Z,99254.28
2023-02-19T04:55:43.799Z,99257.88
2023-02-19T04:58:12.228Z,99255.63
2023-02-19T05:00:40.635Z,99248.94
2023-02-19T05:03:09.086Z,99238.44
2023-02-19T05:05:37.470Z,99238.94
2023-02-19T05:08:06.386Z,99241.72
2023-02-19T05:10:36.152Z,99240.38
2023-02-19T05:13:04.618Z,99217.72
2023-02-19T05:15:33.048Z,99230.28
2023-02-19T05:18:01.474Z,99228.72
2023-02-19T05:20:29.967Z,99231.31
2023-02-19T05:22:58.549Z,99229.50
2023-02-19T05:25:26.971Z,99216.09
2023-02-19T05:28:16.730Z,99204.06
2023-02-19T05:30:45.481Z,99192.28
2023-02-19T05:33:14.900Z,99203.97
2023-02-19T05:35:45.633Z,99196.06
2023-02-19T05:38:14.413Z,99188.97
2023-02-19T05:40:43.295Z,99194.84
2023-02-19T05:43:14.279Z,99178.63
2023-02-19T05:45:43.094Z,99176.75
2023-02-19T05:48:13.375Z,99171.28
2023-02-19T05:50:41.789Z,99168.25
2023-02-19T05:53:10.837Z,99172.16
2023-02-19T05:55:39.317Z,99167.22
2023-02-19T05:58:07.766Z,99174.97
2023-02-19T06:00:37.720Z,99165.31
2023-02-19T06:03:06.269Z,99162.88
2023-02-19T06:05:34.701Z,99170.63
2023-02-19T06:08:03.096Z,99167.31
2023-02-19T06:10:31.618Z,99152.97
2023-02-19T06:13:00.046Z,99149.69
2023-02-19T06:15:28.517Z,99159.69
2023-02-19T06:17:58.322Z,99151.69
2023-02-19T06:20:26.743Z,99153.91
2023-02-19T06:22:55.256Z,99166.09
2023-02-19T06:25:23.652Z,99164.41
2023-02-19T06:27:52.068Z,99157.78
2023-02-19T06:30:20.948Z,99164.16
2023-02-19T06:32:49.386Z,99166.91
2023-02-19T06:35:19.330Z,99169.38
2023-02-19T06:37:48.529Z,99168.25
2023-02-19T06:40:17.316Z,99175.69
2023-02-19T06:42:45.705Z,99179.78
2023-02-19T06:45:15.515Z,99173.66
2023-02-19T06:47:44.240Z,99191.84
2023-02-19T06:50:12.669Z,99177.16
2023-02-19T06:52:42.431Z,99171.53
2023-02-19T06:55:11.184Z,99154.91
2023-02-19T06:57:39.550Z,99162.03
2023-02-19T07:00:10.237Z,99175.25
2023-02-19T07:02:38.625Z,99188.19
2023-02-19T07:05:07.983Z,99189.84
2023-02-19T07:07:36.460Z,99188.44
2023-02-19T07:10:07.511Z,99170.72
2023-02-19T07:12:35.904Z,99179.25
2023-02-19T07:15:04.390Z,99172.00
2023-02-19T07:17:32.771Z,99178.88
2023-02-19T07:20:01.296Z,99175.53
2023-02-19T07:22:29.730Z,99183.47
2023-02-19T07:24:58.179Z,99182.56
2023-02-19T07:27:27.941Z,99171.75
2023-02-19T07:29:56.343Z,99163.19
2023-02-19T07:32:24.746Z,99171.69
2023-02-19T07:34:53.189Z,99173.03
2023-02-19T07:37:21.826Z,99167.13
2023-02-19T07:39:51.112Z,99169.84
2023-02-19T07:42:19.516Z,99172.22
2023-02-19T07:44:49.278Z,99150.84
2023-02-19T07:47:17.849Z,99156.91
2023-02-19T07:49:46.286Z,99150.53
2023-02-19T07:52:14.729Z,99150.03
2023-02-19T07:54:43.164Z,99142.03
2023-02-19T07:57:11.829Z,99162.19
2023-02-19T07:59:40.331Z,99163.84
2023-02-19T08:02:35.495Z,99157.72
2023-02-19T08:05:04.537Z,99153.44
2023-02-19T08:07:33.826Z,99167.97
2023-02-19T08:10:16.404Z,99175.50
2023-02-19T08:13:01.982Z,99181.38
2023-02-19T08:15:30.570Z,99178.22
2023-02-19T08:18:00.340Z,99182.84
2023-02-19T08:20:28.811Z,99183.88
2023-02-19T08:22:57.192Z,99177.53
2023-02-19T08:25:25.957Z,99182.78
2023-02-19T08:27:54.466Z,99186.06
2023-02-19T08:30:23.844Z,99193.81
2023-02-19T08:32:52.332Z,99193.41
2023-02-19T08:35:22.526Z,99192.41
2023-02-19T08:37:51.124Z,99198.47
2023-02-19T08:40:19.993Z,99194.63
2023-02-19T08:42:48.550Z,99196.56
2023-02-19T08:45:17.314Z,99177.88
2023-02-19T08:47:46.536Z,99196.16
2023-02-19T08:50:15.045Z,99201.78
2023-02-19T08:52:44.886Z,99204.25
2023-02-19T08:55:13.425Z,99210.31
2023-02-19T08:57:42.207Z,99189.66
2023-02-19T09:00:13.076Z,99201.22
2023-02-19T09:02:41.577Z,99206.78
2023-02-19T09:05:10.128Z,99187.28
2023-02-19T09:07:38.640Z,99205.13
2023-02-19T09:10:09.946Z,99217.16
2023-02-19T09:12:38.531Z,99205.38
2023-02-19T09:15:08.619Z,99219.56
2023-02-19T09:17:37.177Z,99209.59
2023-02-19T09:20:06.467Z,99195.44
2023-02-19T09:22:35.148Z,99198.75
2023-02-19T09:25:03.626Z,99187.13
2023-02-19T09:27:33.709Z,99197.69
2023-02-19T09:30:02.267Z,99190.75
2023-02-19T09:32:32.250Z,99187.16
2023-02-19T09:35:00.952Z,99182.38
2023-02-19T09:37:32.040Z,99175.78
2023-02-19T09:40:01.683Z,99161.72
2023-02-19T09:42:34.330Z,99166.75
2023-02-19T09:45:05.679Z,99160.47
2023-02-19T09:47:35.780Z,99187.22
2023-02-19T09:50:09.678Z,99182.59
2023-02-19T09:52:43.482Z,99172.44
2023-02-19T09:55:19.462Z,99173.88
2023-02-19T09:57:50.456Z,99170.59
2023-02-19T10:00:25.909Z,99167.56
2023-02-19T10:02:59.446Z,99166.50
2023-02-19T10:05:28.479Z,99173.94
2023-02-19T10:07:57.748Z,99155.19
2023-02-19T10:10:33.214Z,99155.28
2023-02-19T10:13:16.747Z,99189.16
2023-02-19T10:15:53.070Z,99179.41
2023-02-19T10:18:28.404Z,99180.25
2023-02-19T10:20:58.455Z,99169.66
2023-02-19T10:23:27.733Z,99177.03
2023-02-19T10:25:58.447Z,99182.81
2023-02-19T10:28:33.065Z,99160.00
2023-02-19T10:31:05.305Z,99202.13
2023-02-19T10:33:33.937Z,99205.50
2023-02-19T10:36:07.234Z,99194.22
2023-02-19T10:38:40.453Z,99210.78
2023-02-19T10:41:19.041Z,99200.78
2023-02-19T10:44:01.260Z,99205.50
2023-02-19T10:46:34.243Z,99170.78
2023-02-19T10:49:14.105Z,99204.28
2023-02-19T10:51:45.628Z,99206.97
2023-02-19T10:54:20.981Z,99197.72
2023-02-19T10:56:50.503Z,99196.53
2023-02-19T10:59:29.946Z,99190.38
2023-02-19T11:02:00.640Z,99190.28
2023-02-19T11:04:34.235Z,99183.66
2023-02-19T11:07:11.482Z,99180.44
2023-02-19T11:09:42.804Z,99195.13
2023-02-19T11:12:13.933Z,99199.78
2023-02-19T11:14:46.709Z,99179.94
2023-02-19T11:17:26.372Z,99178.44
2023-02-19T11:19:57.635Z,99186.25
2023-02-19T11:22:39.197Z,99177.63
2023-02-19T11:25:22.129Z,99177.94
2023-02-19T11:28:02.745Z,99184.72
2023-02-19T11:30:51.114Z,99164.41
2023-02-19T11:33:32.042Z,99182.38
2023-02-19T11:36:28.779Z,99177.72
2023-02-19T11:39:04.878Z,99173.47
2023-02-19T11:42:12.463Z,99167.31
2023-02-19T11:44:57.906Z,99185.41
2023-02-19T11:48:09.962Z,99168.75
2023-02-19T11:50:58.131Z,99188.00
2023-02-19T11:53:32.143Z,99195.06
2023-02-19T11:56:16.552Z,99190.22
2023-02-19T11:59:06.372Z,99189.78
2023-02-19T12:02:15.942Z,99204.38
2023-02-19T12:05:26.728Z,99222.25
2023-02-19T12:08:32.113Z,99230.75
2023-02-19T12:11:45.581Z,99225.47
2023-02-19T12:15:00.493Z,99227.38
2023-02-19T12:17:52.739Z,99234.03
2023-02-19T12:20:33.724Z,99229.03
2023-02-19T12:23:34.878Z,99231.94
2023-02-19T12:26:16.178Z,99226.06
2023-02-19T12:29:31.812Z,99213.34
2023-02-19T12:32:35.194Z,99219.75
2023-02-19T12:35:47.477Z,99246.63
2023-02-19T12:38:28.618Z,99241.97
2023-02-19T12:41:21.256Z,99244.16
2023-02-19T12:43:59.338Z,99241.09
2023-02-19T12:46:33.585Z,99250.19
2023-02-19T12:49:12.093Z,99229.75
2023-02-19T12:51:49.252Z,99224.41
2023-02-19T12:54:25.209Z,99213.88
2023-02-19T12:57:02.608Z,99229.50
2023-02-19T12:59:36.590Z,99212.81
2023-02-19T13:02:16.910Z,99216.06
2023-02-19T13:04:55.384Z,99206.44
2023-02-19T13:07:35.047Z,99190.06
2023-02-19T13:10:28.827Z,99200.28
2023-02-19T13:13:02.538Z,99214.63
2023-02-19T13:15:37.252Z,99205.94
2023-02-19T13:18:15.337Z,99189.97
2023-02-19T13:20:46.659Z,99197.56
2023-02-19T13:23:39.970Z,99218.00
2023-02-19T13:26:37.470Z,99194.16
2023-02-19T13:29:27.943Z,99188.34
2023-02-19T13:32:19.440Z,99187.38
2023-02-19T13:35:05.762Z,99189.25
2023-02-19T13:37:36.156Z,99182.56
2023-02-19T13:40:21.441Z,99190.47
2023-02-19T13:42:56.450Z,99206.81
2023-02-19T13:45:34.591Z,99187.94
2023-02-19T13:48:26.438Z,99178.91
2023-02-19T13:51:51.184Z,99184.03
2023-02-19T13:54:28.353Z,99183.19
2023-02-19T13:57:29.030Z,99204.09
2023-02-19T14:00:00.255Z,99225.47
2023-02-19T14:02:35.650Z,99222.97
2023-02-19T14:05:11.335Z,99251.44
2023-02-19T14:07:57.065Z,99244.38
2023-02-19T14:11:03.606Z,99239.78
2023-02-19T14:14:07.525Z,99259.75
2023-02-19T14:17:01.641Z,99271.44
2023-02-19T14:19:57.055Z,99272.31
2023-02-19T14:23:04.520Z,99284.94
2023-02-19T14:25:54.849Z,99313.56
2023-02-19T14:28:39.867Z,99310.09
2023-02-19T14:31:27.306Z,99321.81
2023-02-19T14:34:01.265Z,99326.28
2023-02-19T14:36:49.022Z,99321.69
2023-02-19T14:39:23.284Z,99320.34
2023-02-19T14:41:56.629Z,99318.44
2023-02-19T14:44:30.899Z,99333.38
2023-02-19T14:47:07.087Z,99330.41
2023-02-19T14:49:44.265Z,99345.59
2023-02-19T14:52:19.513Z,99341.78
2023-02-19T14:54:55.344Z,99357.56
2023-02-19T14:57:30.908Z,99359.78
2023-02-19T15:00:03.679Z,99363.69
2023-02-19T15:02:43.540Z,99372.00
2023-02-19T15:05:18.458Z,99373.13
2023-02-19T15:07:48.583Z,99368.75
2023-02-19T15:10:19.251Z,99362.66
2023-02-19T15:12:52.709Z,99388.88
2023-02-19T15:15:26.582Z,99394.44
2023-02-19T15:17:59.702Z,99404.66
2023-02-19T15:20:36.881Z,99409.94
2023-02-19T15:23:09.524Z,99418.00
2023-02-19T15:25:46.005Z,99432.66
2023-02-19T15:28:33.775Z,99448.97
2023-02-19T15:31:16.818Z,99447.34
2023-02-19T15:33:56.372Z,99442.94
2023-02-19T15:36:32.175Z,99452.88
2023-02-19T15:39:05.251Z,99440.22
2023-02-19T15:41:37.610Z,99447.13
2023-02-19T15:44:39.008Z,99461.44
2023-02-19T15:47:20.656Z,99468.63
2023-02-19T15:50:01.012Z,99478.00
2023-02-19T15:52:41.108Z,99480.75
2023-02-19T15:55:29.351Z,99471.34
2023-02-19T15:58:10.084Z,99471.63
2023-02-19T16:00:48.002Z,99484.00
2023-02-19T16:03:22.409Z,99497.22
2023-02-19T16:06:05.024Z,99502.16
2023-02-19T16:08:36.877Z,99508.78
2023-02-19T16:11:08.805Z,99523.34
2023-02-19T16:13:38.646Z,99526.34
2023-02-19T16:16:27.749Z,99530.44
2023-02-19T16:18:58.100Z,99543.38
2023-02-19T16:21:31.471Z,99547.47
2023-02-19T16:24:06.659Z,99551.56
2023-02-19T16:26:43.048Z,99543.53
2023-02-19T16:29:26.030Z,99520.94
2023-02-19T16:32:00.216Z,99535.78
2023-02-19T16:34:42.867Z,99522.78
2023-02-19T16:37:59.694Z,99524.59
2023-02-19T16:41:18.346Z,99532.53
2023-02-19T16:43:49.778Z,99539.41
2023-02-19T16:46:20.591Z,99545.97
2023-02-19T16:48:51.903Z,99550.34
2023-02-19T16:51:28.384Z,99563.50
2023-02-19T16:54:00.382Z,99572.56
2023-02-19T16:56:34.169Z,99583.34
2023-02-19T16:59:05.345Z,99595.97
2023-02-19T17:01:35.350Z,99596.81
2023-02-19T17:04:08.259Z,99616.88
2023-02-19T17:06:39.544Z,99613.56
2023-02-19T17:09:15.044Z,99619.03
2023-02-19T17:11:46.397Z,99614.88
2023-02-19T17:14:19.128Z,99622.81
2023-02-19T17:16:53.970Z,99636.53
2023-02-19T17:19:25.270Z,99651.91
2023-02-19T17:21:55.272Z,99662.06
2023-02-19T17:24:26.806Z,99665.94
2023-02-19T17:26:57.378Z,99670.59
2023-02-19T17:29:29.117Z,99662.34
2023-02-19T17:32:01.276Z,99675.25
2023-02-19T17:34:32.884Z,99697.22
2023-02-19T17:37:04.625Z,99690.09
2023-02-19T17:39:36.629Z,99704.06
2023-02-19T17:42:07.183Z,99707.66
2023-02-19T17:44:36.569Z,99710.69
2023-02-19T17:47:09.967Z,99714.50
2023-02-19T17:49:40.895Z,99717.53
2023-02-19T17:52:18.113Z,99723.03
2023-02-19T17:54:52.710Z,99734.78
2023-02-19T17:57:23.370Z,99737.25
2023-02-19T17:59:53.630Z,99750.16
2023-02-19T18:02:23.728Z,99758.41
2023-02-19T18:04:54.188Z,99760.09
2023-02-19T18:07:24.892Z,99754.31
2023-02-19T18:09:57.758Z,99760.09
2023-02-19T18:12:29.056Z,99762.56
2023-02-19T18:14:59.755Z,99769.75
2023-02-19T18:17:31.602Z,99778.56
2023-02-19T18:20:05.729Z,99782.97
2023-02-19T18:22:36.446Z,99785.47
2023-02-19T18:25:09.052Z,99797.84
2023-02-19T18:27:40.237Z,99795.69
2023-02-19T18:30:12.813Z,99786.94
2023-02-19T18:32:46.422Z,99789.47
2023-02-19T18:35:18.945Z,99787.88
2023-02-19T18:37:52.187Z,99795.59
2023-02-19T18:40:26.000Z,99784.06
2023-02-19T18:42:57.097Z,99792.66
2023-02-19T18:45:28.052Z,99793.22
2023-02-19T18:47:58.196Z,99806.47
2023-02-19T18:50:28.374Z,99808.94
2023-02-19T18:53:00.102Z,99819.44
2023-02-19T18:55:32.409Z,99823.81
2023-02-19T18:58:03.648Z,99820.25
2023-02-19T19:00:33.748Z,99809.00
2023-02-19T19:03:03.760Z,99825.22
2023-02-19T19:05:35.427Z,99822.28
2023-02-19T19:08:06.465Z,99827.22
2023-02-19T19:10:40.285Z,99831.38
2023-02-19T19:13:11.010Z,99828.13
2023-02-19T19:15:41.584Z,99821.53
2023-02-19T19:18:16.707Z,99831.44
2023-02-19T19:20:47.704Z,99832.00
2023-02-19T19:23:18.405Z,99849.94
2023-02-19T19:25:53.666Z,99844.44
2023-02-19T19:28:26.635Z,99841.97
2023-02-19T19:30:57.383Z,99844.47
2023-02-19T19:33:30.583Z,99849.72
2023-02-19T19:36:03.442Z,99854.13
2023-02-19T19:38:35.148Z,99865.44
2023-02-19T19:41:07.733Z,99878.94
2023-02-19T19:43:37.872Z,99873.75
2023-02-19T19:46:12.477Z,99880.66
2023-02-19T19:48:45.851Z,99879.31
2023-02-19T19:51:16.447Z,99887.88
2023-02-19T19:53:49.111Z,99892.88
2023-02-19T19:56:21.813Z,99900.84
2023-02-19T19:58:52.621Z,99903.38
2023-02-19T20:01:24.410Z,99901.19
2023-02-19T20:03:57.660Z,99906.13
2023-02-19T20:06:31.361Z,99908.38
2023-02-19T20:09:02.275Z,99907.31
2023-02-19T20:11:35.313Z,99911.47
2023-02-19T20:14:07.642Z,99922.22
2023-02-19T20:16:38.341Z,99910.09
2023-02-19T20:19:08.322Z,99923.34
2023-02-19T20:21:38.932Z,99925.53
2023-02-19T20:24:10.452Z,99938.22
2023-02-19T20:26:45.749Z,99926.59
2023-02-19T20:29:17.793Z,99936.25
2023-02-19T20:31:54.877Z,99925.75
2023-02-19T20:34:25.992Z,99933.66
2023-02-19T20:36:58.420Z,99934.44
2023-02-19T20:39:29.808Z,99940.50
2023-02-19T20:42:03.285Z,99931.06
2023-02-19T20:44:34.221Z,99937.63
2023-02-19T20:47:03.997Z,99956.25
2023-02-19T20:49:37.189Z,99957.50
2023-02-19T20:52:09.897Z,99953.19
2023-02-19T20:54:40.582Z,99970.34
2023-02-19T20:57:13.290Z,99969.97
2023-02-19T20:59:44.486Z,99975.91
2023-02-19T21:02:19.942Z,99986.28
2023-02-19T21:04:49.616Z,99989.75
2023-02-19T21:07:20.937Z,100002.59
2023-02-19T21:09:52.644Z,99989.88
2023-02-19T21:12:24.243Z,99987.03
2023-02-19T21:14:54.208Z,99985.84
2023-02-19T21:17:24.097Z,100000.97
2023-02-19T21:19:54.074Z,99992.38
2023-02-19T21:22:23.777Z,99996.44
2023-02-19T21:24:55.022Z,99998.63
2023-02-19T21:27:27.239Z,99999.94
2023-02-19T21:29:56.652Z,100007.88
2023-02-19T21:32:25.421Z,100016.34
2023-02-19T21:34:55.730Z,100026.53
2023-02-19T21:37:25.900Z,100013.28
2023-02-19T21:39:59.242Z,100017.34
2023-02-19T21:42:29.481Z,100017.00
2023-02-19T21:44:59.087Z,100007.59
2023-02-19T21:47:29.429Z,100020.16
2023-02-19T21:49:58.350Z,100020.34
2023-02-19T21:52:28.941Z,100019.16
2023-02-19T21:54:57.956Z,100019.06
2023-02-19T21:57:26.695Z,100024.22
2023-02-19T21:59:56.801Z,100035.09
2023-02-19T22:02:25.467Z,100029.84
2023-02-19T22:04:54.752Z,100039.19
2023-02-19T22:07:23.383Z,100039.69
2023-02-19T22:09:53.083Z,100041.84
2023-02-19T22:12:22.122Z,100041.25
2023-02-19T22:14:51.704Z,100037.66
2023-02-19T22:17:22.234Z,100034.34
2023-02-19T22:19:50.660Z,100042.56
2023-02-19T22:22:19.203Z,100040.06
2023-02-19T22:24:47.614Z,100048.53
2023-02-19T22:27:16.065Z,100057.84
2023-02-19T22:29:44.473Z,100045.81
2023-02-19T22:32:13.014Z,100054.63
2023-02-19T22:34:43.742Z,100048.06
2023-02-19T22:37:12.393Z,100054.97
2023-02-19T22:39:40.787Z,100058.53
2023-02-19T22:42:09.253Z,100058.53
2023-02-19T22:44:38.394Z,100064.88
2023-02-19T22:47:07.058Z,100072.03
2023-02-19T22:49:38.677Z,100066.75
2023-02-19T22:52:11.081Z,100072.50
2023-02-19T22:54:40.849Z,100079.09
2023-02-19T22:57:09.521Z,100072.78
2023-02-19T22:59:37.944Z,100073.59
2023-02-19T23:02:06.716Z,100084.59
2023-02-19T23:04:35.267Z,100087.56
2023-02-19T23:07:03.744Z,100086.97
2023-02-19T23:09:33.879Z,100086.88
2023-02-19T23:12:05.095Z,100093.88
2023-02-19T23:14:34.194Z,100107.28
2023-02-19T23:17:02.878Z,100103.31
2023-02-19T23:19:31.994Z,100095.25
2023-02-19T23:22:00.667Z,100106.09
2023-02-19T23:24:29.182Z,100099.44
2023-02-19T23:26:59.681Z,100102.06
2023-02-19T23:29:30.858Z,100103.63
2023-02-19T23:32:00.354Z,100099.44
2023-02-19T23:34:28.975Z,100090.88
2023-02-19T23:36:59.611Z,100098.75
2023-02-19T23:39:28.090Z,100103.06
2023-02-19T23:41:59.425Z,100097.19
2023-02-19T23:44:27.912Z,100101.50
2023-02-19T23:46:56.384Z,100096.47
2023-02-19T23:49:24.990Z,100101.38
2023-02-19T23:51:53.467Z,100094.72
2023-02-19T23:54:21.965Z,100087.56
2023-02-19T23:56:50.474Z,100085.06
2023-02-19T23:59:20.364Z,100082.56
